Terminal Aerodrome Forecast
Issued by NWS Wilmington, OH

Current Version | Previous Version | Text Only | Print | Product List | Glossary Off
Versions: 1 2 3 4 5 6 7 8 9 10 11 12 13 14 15 16 17 18 19 20 21 22 23 24 25 26 27

000
FTUS41 KILN 021500 AAA
TAFCVG
TAF AMD
KCVG 021514Z 0215/0318 36006KT P6SM BKN250
     FM021800 04005KT P6SM SCT025 SCT150
     FM030300 09007KT P6SM SCT015 OVC120
     FM031100 11008KT P6SM -FZRA BKN015 OVC050
     FM031500 14008KT 5SM -RA OVC012=

USA.gov is the U.S. government's official web portal to all federal, state and local government web resources and services.